sensor_id;sensor_type;location;lat;lon;timestamp;pressure;altitude;pressure_sealevel;temperature;humidity
14242;BME280;7205;50.864;12.766;2022-10-22T00:02:23;97318.31;;;15.35;100.00
14242;BME280;7205;50.864;12.766;2022-10-22T00:04:52;97316.53;;;15.29;100.00
14242;BME280;7205;50.864;12.766;2022-10-22T00:07:21;97317.13;;;15.24;100.00
14242;BME280;7205;50.864;12.766;2022-10-22T00:09:48;97311.44;;;15.21;100.00
14242;BME280;7205;50.864;12.766;2022-10-22T00:12:15;97319.63;;;15.19;100.00
14242;BME280;7205;50.864;12.766;2022-10-22T00:14:44;97314.72;;;15.16;100.00
14242;BME280;7205;50.864;12.766;2022-10-22T00:17:11;97310.44;;;15.15;100.00
14242;BME280;7205;50.864;12.766;2022-10-22T00:19:38;97312.06;;;15.16;100.00
14242;BME280;7205;50.864;12.766;2022-10-22T00:22:05;97316.34;;;15.17;100.00
14242;BME280;7205;50.864;12.766;2022-10-22T00:24:33;97322.72;;;15.16;100.00
14242;BME280;7205;50.864;12.766;2022-10-22T00:27:00;97326.19;;;15.17;100.00
14242;BME280;7205;50.864;12.766;2022-10-22T00:29:27;97334.97;;;15.17;100.00
14242;BME280;7205;50.864;12.766;2022-10-22T00:31:55;97334.56;;;15.20;100.00
14242;BME280;7205;50.864;12.766;2022-10-22T00:34:23;97337.00;;;15.22;100.00
14242;BME280;7205;50.864;12.766;2022-10-22T00:36:51;97330.22;;;15.26;100.00
14242;BME280;7205;50.864;12.766;2022-10-22T00:39:21;97339.44;;;15.30;100.00
14242;BME280;7205;50.864;12.766;2022-10-22T00:41:50;97337.38;;;15.32;100.00
14242;BME280;7205;50.864;12.766;2022-10-22T00:47:23;97333.03;;;15.37;100.00
14242;BME280;7205;50.864;12.766;2022-10-22T00:49:52;97338.59;;;15.42;100.00
14242;BME280;7205;50.864;12.766;2022-10-22T00:52:20;97345.72;;;15.48;100.00
14242;BME280;7205;50.864;12.766;2022-10-22T00:54:48;97340.78;;;15.52;100.00
14242;BME280;7205;50.864;12.766;2022-10-22T00:57:16;97338.31;;;15.57;100.00
14242;BME280;7205;50.864;12.766;2022-10-22T00:59:44;97328.03;;;15.60;100.00
14242;BME280;7205;50.864;12.766;2022-10-22T01:02:11;97339.88;;;15.64;100.00
14242;BME280;7205;50.864;12.766;2022-10-22T01:04:39;97335.97;;;15.67;100.00
14242;BME280;7205;50.864;12.766;2022-10-22T01:07:09;97334.16;;;15.67;100.00
14242;BME280;7205;50.864;12.766;2022-10-22T01:09:40;97337.56;;;15.74;100.00
14242;BME280;7205;50.864;12.766;2022-10-22T01:12:16;97335.72;;;15.75;100.00
14242;BME280;7205;50.864;12.766;2022-10-22T01:15:01;97324.84;;;15.76;100.00
14242;BME280;7205;50.864;12.766;2022-10-22T01:17:32;97319.09;;;15.79;100.00
14242;BME280;7205;50.864;12.766;2022-10-22T01:20:12;97325.03;;;15.81;100.00
14242;BME280;7205;50.864;12.766;2022-10-22T01:22:54;97328.91;;;15.85;100.00
14242;BME280;7205;50.864;12.766;2022-10-22T01:25:30;97321.72;;;15.86;100.00
14242;BME280;7205;50.864;12.766;2022-10-22T01:28:10;97326.63;;;15.89;100.00
14242;BME280;7205;50.864;12.766;2022-10-22T01:30:46;97321.28;;;15.89;100.00
14242;BME280;7205;50.864;12.766;2022-10-22T01:33:18;97329.69;;;15.92;100.00
14242;BME280;7205;50.864;12.766;2022-10-22T01:35:47;97332.91;;;15.94;100.00
14242;BME280;7205;50.864;12.766;2022-10-22T01:38:18;97329.47;;;15.94;100.00
14242;BME280;7205;50.864;12.766;2022-10-22T01:43:26;97315.69;;;15.97;100.00
14242;BME280;7205;50.864;12.766;2022-10-22T01:45:57;97321.03;;;15.97;100.00
14242;BME280;7205;50.864;12.766;2022-10-22T01:48:34;97320.19;;;15.96;100.00
14242;BME280;7205;50.864;12.766;2022-10-22T01:51:24;97315.69;;;15.97;100.00
14242;BME280;7205;50.864;12.766;2022-10-22T01:53:59;97315.47;;;15.98;100.00
14242;BME280;7205;50.864;12.766;2022-10-22T01:56:38;97309.31;;;15.98;100.00
14242;BME280;7205;50.864;12.766;2022-10-22T01:59:14;97309.31;;;15.98;100.00
14242;BME280;7205;50.864;12.766;2022-10-22T02:01:48;97304.81;;;15.98;100.00
14242;BME280;7205;50.864;12.766;2022-10-22T02:04:25;97312.81;;;15.98;100.00
14242;BME280;7205;50.864;12.766;2022-10-22T02:06:55;97304.00;;;15.98;100.00
14242;BME280;7205;50.864;12.766;2022-10-22T02:09:26;97306.66;;;15.98;100.00
14242;BME280;7205;50.864;12.766;2022-10-22T02:11:56;97301.34;;;15.98;100.00
14242;BME280;7205;50.864;12.766;2022-10-22T02:14:24;97299.72;;;15.97;100.00
14242;BME280;7205;50.864;12.766;2022-10-22T02:16:56;97308.72;;;15.96;100.00
14242;BME280;7205;50.864;12.766;2022-10-22T02:19:29;97305.50;;;15.94;100.00
14242;BME280;7205;50.864;12.766;2022-10-22T02:22:01;97305.91;;;15.91;100.00
14242;BME280;7205;50.864;12.766;2022-10-22T02:24:30;97304.50;;;15.88;100.00
14242;BME280;7205;50.864;12.766;2022-10-22T02:27:00;97303.88;;;15.86;100.00
14242;BME280;7205;50.864;12.766;2022-10-22T02:29:34;97308.59;;;15.84;100.00
14242;BME280;7205;50.864;12.766;2022-10-22T02:32:06;97306.59;;;15.80;100.00
14242;BME280;7205;50.864;12.766;2022-10-22T02:34:36;97296.78;;;15.80;100.00
14242;BME280;7205;50.864;12.766;2022-10-22T02:37:03;97295.34;;;15.78;100.00
14242;BME280;7205;50.864;12.766;2022-10-22T02:39:34;97298.22;;;15.76;100.00
14242;BME280;7205;50.864;12.766;2022-10-22T02:42:02;97300.50;;;15.73;100.00
14242;BME280;7205;50.864;12.766;2022-10-22T02:44:29;97298.72;;;15.67;100.00
14242;BME280;7205;50.864;12.766;2022-10-22T02:46:57;97301.00;;;15.63;100.00
14242;BME280;7205;50.864;12.766;2022-10-22T02:49:25;97296.91;;;15.61;100.00
14242;BME280;7205;50.864;12.766;2022-10-22T02:51:52;97305.31;;;15.58;100.00
14242;BME280;7205;50.864;12.766;2022-10-22T02:54:19;97307.38;;;15.56;100.00
14242;BME280;7205;50.864;12.766;2022-10-22T02:56:46;97310.25;;;15.54;100.00
14242;BME280;7205;50.864;12.766;2022-10-22T02:59:12;97306.56;;;15.55;100.00
14242;BME280;7205;50.864;12.766;2022-10-22T03:01:39;97307.59;;;15.54;100.00
14242;BME280;7205;50.864;12.766;2022-10-22T03:04:06;97312.34;;;15.52;100.00
14242;BME280;7205;50.864;12.766;2022-10-22T03:06:34;97308.25;;;15.50;100.00
14242;BME280;7205;50.864;12.766;2022-10-22T03:09:01;97306.63;;;15.49;100.00
14242;BME280;7205;50.864;12.766;2022-10-22T03:11:28;97311.56;;;15.45;100.00
14242;BME280;7205;50.864;12.766;2022-10-22T03:13:55;97324.25;;;15.43;100.00
14242;BME280;7205;50.864;12.766;2022-10-22T03:16:22;97324.69;;;15.40;100.00
14242;BME280;7205;50.864;12.766;2022-10-22T03:18:48;97325.69;;;15.39;100.00
14242;BME280;7205;50.864;12.766;2022-10-22T03:21:22;97326.91;;;15.37;100.00
14242;BME280;7205;50.864;12.766;2022-10-22T03:23:53;97335.13;;;15.35;100.00
14242;BME280;7205;50.864;12.766;2022-10-22T03:26:20;97332.44;;;15.35;100.00
14242;BME280;7205;50.864;12.766;2022-10-22T03:28:47;97335.31;;;15.34;100.00
14242;BME280;7205;50.864;12.766;2022-10-22T03:31:14;97334.50;;;15.33;100.00
14242;BME280;7205;50.864;12.766;2022-10-22T03:33:41;97335.50;;;15.32;100.00
14242;BME280;7205;50.864;12.766;2022-10-22T03:36:08;97335.50;;;15.32;100.00
14242;BME280;7205;50.864;12.766;2022-10-22T03:38:36;97326.53;;;15.33;100.00
14242;BME280;7205;50.864;12.766;2022-10-22T03:41:07;97322.81;;;15.34;100.00
14242;BME280;7205;50.864;12.766;2022-10-22T03:43:35;97317.72;;;15.33;100.00
14242;BME280;7205;50.864;12.766;2022-10-22T03:46:03;97318.75;;;15.32;100.00
14242;BME280;7205;50.864;12.766;2022-10-22T03:48:30;97311.38;;;15.34;100.00
14242;BME280;7205;50.864;12.766;2022-10-22T03:50:57;97312.19;;;15.34;100.00
14242;BME280;7205;50.864;12.766;2022-10-22T03:53:24;97313.81;;;15.35;100.00
14242;BME280;7205;50.864;12.766;2022-10-22T03:55:51;97315.88;;;15.33;100.00
14242;BME280;7205;50.864;12.766;2022-10-22T03:58:19;97322.59;;;15.36;100.00
14242;BME280;7205;50.864;12.766;2022-10-22T04:00:46;97314.84;;;15.34;100.00
14242;BME280;7205;50.864;12.766;2022-10-22T04:03:13;97319.38;;;15.34;100.00
14242;BME280;7205;50.864;12.766;2022-10-22T04:05:39;97316.72;;;15.34;100.00
14242;BME280;7205;50.864;12.766;2022-10-22T04:08:06;97322.44;;;15.31;100.00
14242;BME280;7205;50.864;12.766;2022-10-22T04:10:33;97332.66;;;15.34;100.00
14242;BME280;7205;50.864;12.766;2022-10-22T04:13:00;97320.38;;;15.33;100.00
14242;BME280;7205;50.864;12.766;2022-10-22T04:15:28;97329.19;;;15.33;100.00
14242;BME280;7205;50.864;12.766;2022-10-22T04:17:55;97322.22;;;15.32;100.00
14242;BME280;7205;50.864;12.766;2022-10-22T04:20:22;97324.06;;;15.32;100.00
14242;BME280;7205;50.864;12.766;2022-10-22T04:22:48;97321.41;;;15.32;100.00
14242;BME280;7205;50.864;12.766;2022-10-22T04:25:15;97332.06;;;15.32;100.00
14242;BME280;7205;50.864;12.766;2022-10-22T04:27:42;97340.03;;;15.32;100.00
14242;BME280;7205;50.864;12.766;2022-10-22T04:30:10;97340.84;;;15.32;100.00
14242;BME280;7205;50.864;12.766;2022-10-22T04:32:38;97343.50;;;15.32;100.00
14242;BME280;7205;50.864;12.766;2022-10-22T04:35:06;97339.81;;;15.33;100.00
14242;BME280;7205;50.864;12.766;2022-10-22T04:37:33;97338.78;;;15.34;100.00
14242;BME280;7205;50.864;12.766;2022-10-22T04:39:59;97335.31;;;15.34;100.00
14242;BME280;7205;50.864;12.766;2022-10-22T04:42:26;97330.81;;;15.34;100.00
14242;BME280;7205;50.864;12.766;2022-10-22T04:44:53;97322.59;;;15.36;100.00
14242;BME280;7205;50.864;12.766;2022-10-22T04:47:20;97318.94;;;15.37;100.00
14242;BME280;7205;50.864;12.766;2022-10-22T04:49:48;97334.69;;;15.38;100.00
14242;BME280;7205;50.864;12.766;2022-10-22T04:52:15;97332.03;;;15.38;100.00
14242;BME280;7205;50.864;12.766;2022-10-22T04:54:42;97334.50;;;15.40;100.00
14242;BME280;7205;50.864;12.766;2022-10-22T04:57:09;97330.00;;;15.40;100.00
14242;BME280;7205;50.864;12.766;2022-10-22T04:59:35;97335.09;;;15.42;100.00
14242;BME280;7205;50.864;12.766;2022-10-22T05:02:02;97342.03;;;15.43;100.00
14242;BME280;7205;50.864;12.766;2022-10-22T05:04:29;97340.22;;;15.43;100.00
14242;BME280;7205;50.864;12.766;2022-10-22T05:06:57;97329.34;;;15.45;100.00
14242;BME280;7205;50.864;12.766;2022-10-22T05:09:24;97330.19;;;15.45;100.00
14242;BME280;7205;50.864;12.766;2022-10-22T05:11:52;97326.69;;;15.45;100.00
14242;BME280;7205;50.864;12.766;2022-10-22T05:14:20;97337.34;;;15.45;100.00
14242;BME280;7205;50.864;12.766;2022-10-22T05:16:48;97345.31;;;15.45;100.00
14242;BME280;7205;50.864;12.766;2022-10-22T05:19:17;97361.06;;;15.46;100.00
14242;BME280;7205;50.864;12.766;2022-10-22T05:21:44;97355.97;;;15.45;100.00
14242;BME280;7205;50.864;12.766;2022-10-22T05:24:12;97355.13;;;15.44;100.00
14242;BME280;7205;50.864;12.766;2022-10-22T05:26:39;97358.84;;;15.43;100.00
14242;BME280;7205;50.864;12.766;2022-10-22T05:29:06;97350.84;;;15.43;100.00
14242;BME280;7205;50.864;12.766;2022-10-22T05:31:33;97348.19;;;15.43;100.00
14242;BME280;7205;50.864;12.766;2022-10-22T05:34:01;97348.19;;;15.43;100.00
14242;BME280;7205;50.864;12.766;2022-10-22T05:36:27;97349.03;;;15.44;100.00
14242;BME280;7205;50.864;12.766;2022-10-22T05:38:55;97346.56;;;15.42;100.00
14242;BME280;7205;50.864;12.766;2022-10-22T05:41:25;97358.84;;;15.43;100.00
14242;BME280;7205;50.864;12.766;2022-10-22T05:43:53;97358.84;;;15.43;100.00
14242;BME280;7205;50.864;12.766;2022-10-22T05:46:22;97363.34;;;15.43;100.00
14242;BME280;7205;50.864;12.766;2022-10-22T05:48:50;97369.69;;;15.42;100.00
14242;BME280;7205;50.864;12.766;2022-10-22T05:51:17;97380.34;;;15.42;100.00
14242;BME280;7205;50.864;12.766;2022-10-22T05:53:44;97376.03;;;15.41;100.00
14242;BME280;7205;50.864;12.766;2022-10-22T05:56:13;97388.31;;;15.42;100.00
14242;BME280;7205;50.864;12.766;2022-10-22T05:58:43;97403.25;;;15.43;100.00
14242;BME280;7205;50.864;12.766;2022-10-22T06:01:12;97398.75;;;15.43;100.00
14242;BME280;7205;50.864;12.766;2022-10-22T06:03:39;97410.22;;;15.44;100.00
14242;BME280;7205;50.864;12.766;2022-10-22T06:06:26;97409.81;;;15.47;100.00
14242;BME280;7205;50.864;12.766;2022-10-22T06:08:53;97412.25;;;15.48;100.00
14242;BME280;7205;50.864;12.766;2022-10-22T06:11:22;97414.69;;;15.50;100.00
14242;BME280;7205;50.864;12.766;2022-10-22T06:13:50;97417.13;;;15.51;100.00
14242;BME280;7205;50.864;12.766;2022-10-22T06:16:17;97415.91;;;15.54;100.00
14242;BME280;7205;50.864;12.766;2022-10-22T06:18:44;97423.06;;;15.53;100.00
14242;BME280;7205;50.864;12.766;2022-10-22T06:21:13;97436.78;;;15.57;100.00
14242;BME280;7205;50.864;12.766;2022-10-22T06:23:41;97444.56;;;15.58;100.00
14242;BME280;7205;50.864;12.766;2022-10-22T06:26:09;97448.84;;;15.59;100.00
14242;BME280;7205;50.864;12.766;2022-10-22T06:28:37;97449.66;;;15.60;100.00
14242;BME280;7205;50.864;12.766;2022-10-22T06:31:05;97464.81;;;15.59;100.00
14242;BME280;7205;50.864;12.766;2022-10-22T06:33:32;97463.19;;;15.58;100.00
14242;BME280;7205;50.864;12.766;2022-10-22T06:36:07;97472.00;;;15.59;100.00
14242;BME280;7205;50.864;12.766;2022-10-22T06:38:35;97482.03;;;15.57;100.00
14242;BME280;7205;50.864;12.766;2022-10-22T06:41:03;97485.13;;;15.54;100.00
14242;BME280;7205;50.864;12.766;2022-10-22T06:43:30;97484.28;;;15.53;100.00
14242;BME280;7205;50.864;12.766;2022-10-22T06:45:58;97499.66;;;15.51;100.00
14242;BME280;7205;50.864;12.766;2022-10-22T06:48:28;97499.84;;;15.50;100.00
14242;BME280;7205;50.864;12.766;2022-10-22T06:50:55;97506.81;;;15.44;100.00
14242;BME280;7205;50.864;12.766;2022-10-22T06:53:22;97520.56;;;15.41;100.00
14242;BME280;7205;50.864;12.766;2022-10-22T06:55:49;97520.13;;;15.38;100.00
14242;BME280;7205;50.864;12.766;2022-10-22T06:58:24;97524.22;;;15.34;100.00
14242;BME280;7205;50.864;12.766;2022-10-22T07:01:23;97524.22;;;15.27;100.00
14242;BME280;7205;50.864;12.766;2022-10-22T07:03:53;97523.84;;;15.24;100.00
14242;BME280;7205;50.864;12.766;2022-10-22T07:06:21;97529.97;;;15.18;100.00
14242;BME280;7205;50.864;12.766;2022-10-22T07:08:48;97550.22;;;15.12;100.00
14242;BME280;7205;50.864;12.766;2022-10-22T07:11:16;97548.59;;;15.04;100.00
14242;BME280;7205;50.864;12.766;2022-10-22T07:13:44;97559.25;;;14.98;100.00
14242;BME280;7205;50.864;12.766;2022-10-22T07:16:11;97560.25;;;14.90;100.00
14242;BME280;7205;50.864;12.766;2022-10-22T07:18:39;97576.00;;;14.85;100.00
14242;BME280;7205;50.864;12.766;2022-10-22T07:21:12;97588.88;;;14.82;100.00
14242;BME280;7205;50.864;12.766;2022-10-22T07:23:45;97583.75;;;14.80;100.00
14242;BME280;7205;50.864;12.766;2022-10-22T07:26:16;97597.25;;;14.79;100.00
14242;BME280;7205;50.864;12.766;2022-10-22T07:28:45;97598.91;;;14.80;100.00
14242;BME280;7205;50.864;12.766;2022-10-22T07:31:13;97605.25;;;14.79;100.00
14242;BME280;7205;50.864;12.766;2022-10-22T07:33:40;97604.25;;;14.80;100.00
14242;BME280;7205;50.864;12.766;2022-10-22T07:36:13;97612.22;;;14.80;100.00
14242;BME280;7205;50.864;12.766;2022-10-22T07:38:47;97608.72;;;14.79;100.00
14242;BME280;7205;50.864;12.766;2022-10-22T07:41:18;97608.72;;;14.79;100.00
14242;BME280;7205;50.864;12.766;2022-10-22T07:43:51;97600.13;;;14.77;100.00
14242;BME280;7205;50.864;12.766;2022-10-22T07:46:22;97599.91;;;14.79;100.00
14242;BME280;7205;50.864;12.766;2022-10-22T07:48:49;97594.41;;;14.80;100.00
14242;BME280;7205;50.864;12.766;2022-10-22T07:51:32;97599.50;;;14.82;100.00
14242;BME280;7205;50.864;12.766;2022-10-22T07:54:08;97593.19;;;14.83;100.00
14242;BME280;7205;50.864;12.766;2022-10-22T07:56:49;97594.81;;;14.84;100.00
14242;BME280;7205;50.864;12.766;2022-10-22T07:59:22;97603.00;;;14.89;100.00
14242;BME280;7205;50.864;12.766;2022-10-22T08:01:49;97602.78;;;14.90;100.00
14242;BME280;7205;50.864;12.766;2022-10-22T08:04:16;97606.91;;;14.93;100.00
14242;BME280;7205;50.864;12.766;2022-10-22T08:06:44;97596.06;;;14.94;100.00
14242;BME280;7205;50.864;12.766;2022-10-22T08:09:11;97600.13;;;14.97;100.00
14242;BME280;7205;50.864;12.766;2022-10-22T08:11:38;97599.97;;;14.98;100.00
14242;BME280;7205;50.864;12.766;2022-10-22T08:14:07;97607.53;;;15.01;100.00
14242;BME280;7205;50.864;12.766;2022-10-22T08:16:34;97611.41;;;15.05;100.00
14242;BME280;7205;50.864;12.766;2022-10-22T08:19:01;97611.00;;;15.08;100.00
14242;BME280;7205;50.864;12.766;2022-10-22T08:21:27;97610.59;;;15.12;100.00
14242;BME280;7205;50.864;12.766;2022-10-22T08:23:56;97602.81;;;15.17;100.00
14242;BME280;7205;50.864;12.766;2022-10-22T08:26:23;97604.66;;;15.23;100.00
14242;BME280;7205;50.864;12.766;2022-10-22T08:28:50;97603.03;;;15.28;100.00
14242;BME280;7205;50.864;12.766;2022-10-22T08:31:17;97605.25;;;15.38;100.00
14242;BME280;7205;50.864;12.766;2022-10-22T08:33:44;97603.25;;;15.46;100.00
14242;BME280;7205;50.864;12.766;2022-10-22T08:36:20;97606.50;;;15.55;100.00
14242;BME280;7205;50.864;12.766;2022-10-22T08:38:47;97600.16;;;15.62;100.00
14242;BME280;7205;50.864;12.766;2022-10-22T08:41:17;97597.69;;;15.74;100.00
14242;BME280;7205;50.864;12.766;2022-10-22T08:44:14;97587.41;;;15.84;100.00
14242;BME280;7205;50.864;12.766;2022-10-22T08:47:05;97592.91;;;15.95;100.00
14242;BME280;7205;50.864;12.766;2022-10-22T08:49:39;97585.91;;;16.07;100.00
14242;BME280;7205;50.864;12.766;2022-10-22T08:52:12;97578.28;;;16.17;100.00
14242;BME280;7205;50.864;12.766;2022-10-22T08:54:50;97575.97;;;16.27;100.00
14242;BME280;7205;50.864;12.766;2022-10-22T08:57:45;97569.13;;;16.38;100.00
14242;BME280;7205;50.864;12.766;2022-10-22T09:00:21;97576.91;;;16.53;100.00
14242;BME280;7205;50.864;12.766;2022-10-22T09:03:04;97585.44;;;16.68;100.00
14242;BME280;7205;50.864;12.766;2022-10-22T09:05:42;97596.41;;;16.84;100.00
14242;BME280;7205;50.864;12.766;2022-10-22T09:08:16;97602.66;;;16.96;100.00
14242;BME280;7205;50.864;12.766;2022-10-22T09:10:48;97606.03;;;17.10;100.00
14242;BME280;7205;50.864;12.766;2022-10-22T09:13:19;97594.47;;;17.22;100.00
14242;BME280;7205;50.864;12.766;2022-10-22T09:15:48;97582.03;;;17.34;100.00
14242;BME280;7205;50.864;12.766;2022-10-22T09:18:27;97583.00;;;17.40;100.00
14242;BME280;7205;50.864;12.766;2022-10-22T09:21:00;97570.66;;;17.45;100.00
14242;BME280;7205;50.864;12.766;2022-10-22T09:23:36;97548.06;;;17.41;99.69
14242;BME280;7205;50.864;12.766;2022-10-22T09:26:14;97544.78;;;17.46;98.74
14242;BME280;7205;50.864;12.766;2022-10-22T09:28:50;97539.97;;;17.55;98.41
14242;BME280;7205;50.864;12.766;2022-10-22T09:34:32;97536.03;;;17.75;97.00
14242;BME280;7205;50.864;12.766;2022-10-22T09:37:32;97535.16;;;17.81;95.81
14242;BME280;7205;50.864;12.766;2022-10-22T09:40:15;97528.09;;;17.87;94.98
14242;BME280;7205;50.864;12.766;2022-10-22T09:42:44;97530.03;;;17.98;94.06
14242;BME280;7205;50.864;12.766;2022-10-22T09:45:43;97536.25;;;18.10;93.31
14242;BME280;7205;50.864;12.766;2022-10-22T09:48:19;97525.84;;;18.20;92.59
14242;BME280;7205;50.864;12.766;2022-10-22T09:50:54;97541.34;;;18.29;91.13
14242;BME280;7205;50.864;12.766;2022-10-22T09:53:41;97536.34;;;18.33;89.34
14242;BME280;7205;50.864;12.766;2022-10-22T09:56:32;97548.66;;;18.34;87.51
14242;BME280;7205;50.864;12.766;2022-10-22T09:59:24;97564.28;;;18.37;87.03
14242;BME280;7205;50.864;12.766;2022-10-22T10:02:08;97565.16;;;18.31;85.65
14242;BME280;7205;50.864;12.766;2022-10-22T10:08:12;97572.03;;;18.27;84.77
14242;BME280;7205;50.864;12.766;2022-10-22T10:10:44;97566.88;;;18.25;84.87
14242;BME280;7205;50.864;12.766;2022-10-22T10:13:45;97577.44;;;18.20;84.75
14242;BME280;7205;50.864;12.766;2022-10-22T10:16:26;97573.22;;;18.13;84.69
14242;BME280;7205;50.864;12.766;2022-10-22T10:19:14;97579.66;;;18.05;84.91
14242;BME280;7205;50.864;12.766;2022-10-22T10:22:31;97584.22;;;18.05;85.60
14242;BME280;7205;50.864;12.766;2022-10-22T10:25:16;97587.53;;;18.00;85.83
14242;BME280;7205;50.864;12.766;2022-10-22T10:28:02;97590.88;;;17.96;85.56
14242;BME280;7205;50.864;12.766;2022-10-22T10:30:43;97588.28;;;17.89;85.05
14242;BME280;7205;50.864;12.766;2022-10-22T10:33:22;97581.75;;;17.85;85.01
14242;BME280;7205;50.864;12.766;2022-10-22T10:36:14;97573.81;;;17.79;84.98
14242;BME280;7205;50.864;12.766;2022-10-22T10:38:57;97577.53;;;17.78;85.38
14242;BME280;7205;50.864;12.766;2022-10-22T10:41:34;97571.22;;;17.72;85.27
14242;BME280;7205;50.864;12.766;2022-10-22T10:44:26;97565.78;;;17.61;84.58
14242;BME280;7205;50.864;12.766;2022-10-22T10:47:04;97568.97;;;17.51;84.53
14242;BME280;7205;50.864;12.766;2022-10-22T10:49:34;97571.75;;;17.38;84.30
14242;BME280;7205;50.864;12.766;2022-10-22T10:52:12;97577.19;;;17.25;84.63
14242;BME280;7205;50.864;12.766;2022-10-22T10:54:48;97583.22;;;17.14;84.75
14242;BME280;7205;50.864;12.766;2022-10-22T10:57:26;97581.06;;;17.04;85.46
14242;BME280;7205;50.864;12.766;2022-10-22T11:00:06;97576.78;;;16.97;86.48
14242;BME280;7205;50.864;12.766;2022-10-22T11:02:50;97578.63;;;16.96;87.04
14242;BME280;7205;50.864;12.766;2022-10-22T11:05:27;97579.69;;;16.95;87.15
14242;BME280;7205;50.864;12.766;2022-10-22T11:08:08;97587.91;;;16.94;87.68
14242;BME280;7205;50.864;12.766;2022-10-22T11:10:40;97595.47;;;16.97;88.54
14242;BME280;7205;50.864;12.766;2022-10-22T11:13:16;97594.63;;;16.96;89.04
14242;BME280;7205;50.864;12.766;2022-10-22T11:15:47;97596.28;;;16.97;89.36
14242;BME280;7205;50.864;12.766;2022-10-22T11:18:22;97608.81;;;16.97;89.07
14242;BME280;7205;50.864;12.766;2022-10-22T11:20:57;97599.78;;;16.98;89.05
14242;BME280;7205;50.864;12.766;2022-10-22T11:23:33;97594.88;;;16.95;88.60
14242;BME280;7205;50.864;12.766;2022-10-22T11:26:23;97601.25;;;16.94;88.63
14242;BME280;7205;50.864;12.766;2022-10-22T11:29:23;97602.28;;;16.93;88.75
14242;BME280;7205;50.864;12.766;2022-10-22T11:32:25;97604.13;;;16.92;88.52
14242;BME280;7205;50.864;12.766;2022-10-22T11:35:03;97600.19;;;16.95;88.69
14242;BME280;7205;50.864;12.766;2022-10-22T11:37:34;97606.97;;;16.97;89.03
14242;BME280;7205;50.864;12.766;2022-10-22T11:40:17;97604.91;;;16.99;89.01
14242;BME280;7205;50.864;12.766;2022-10-22T11:42:49;97600.16;;;17.01;88.77
14242;BME280;7205;50.864;12.766;2022-10-22T11:45:34;97602.81;;;17.01;88.53
14242;BME280;7205;50.864;12.766;2022-10-22T11:48:13;97599.97;;;17.03;88.37
14242;BME280;7205;50.864;12.766;2022-10-22T11:50:47;97600.75;;;17.03;88.81
14242;BME280;7205;50.864;12.766;2022-10-22T11:53:20;97598.25;;;17.08;89.50
14242;BME280;7205;50.864;12.766;2022-10-22T11:55:55;97608.31;;;17.13;89.65
14242;BME280;7205;50.864;12.766;2022-10-22T11:58:31;97612.38;;;17.15;89.77
14242;BME280;7205;50.864;12.766;2022-10-22T12:01:19;97622.59;;;17.18;89.53
14242;BME280;7205;50.864;12.766;2022-10-22T12:03:50;97622.16;;;17.21;88.99
14242;BME280;7205;50.864;12.766;2022-10-22T12:06:21;97618.03;;;17.25;88.85
14242;BME280;7205;50.864;12.766;2022-10-22T12:08:58;97617.00;;;17.26;88.30
14242;BME280;7205;50.864;12.766;2022-10-22T12:11:39;97607.75;;;17.29;88.00
14242;BME280;7205;50.864;12.766;2022-10-22T12:14:16;97611.25;;;17.29;87.24
14242;BME280;7205;50.864;12.766;2022-10-22T12:16:46;97609.31;;;17.36;87.13
14242;BME280;7205;50.864;12.766;2022-10-22T12:19:16;97608.69;;;17.41;86.94
14242;BME280;7205;50.864;12.766;2022-10-22T12:21:48;97602.06;;;17.43;86.62
14242;BME280;7205;50.864;12.766;2022-10-22T12:24:18;97604.31;;;17.46;86.11
14242;BME280;7205;50.864;12.766;2022-10-22T12:26:47;97606.81;;;17.48;86.19
14242;BME280;7205;50.864;12.766;2022-10-22T12:29:18;97605.97;;;17.47;85.67
14242;BME280;7205;50.864;12.766;2022-10-22T12:31:47;97599.81;;;17.47;85.24
14242;BME280;7205;50.864;12.766;2022-10-22T12:34:15;97595.91;;;17.49;84.56
14242;BME280;7205;50.864;12.766;2022-10-22T12:36:44;97599.97;;;17.52;84.04
14242;BME280;7205;50.864;12.766;2022-10-22T12:39:14;97593.59;;;17.53;83.00
14242;BME280;7205;50.864;12.766;2022-10-22T12:41:42;97588.19;;;17.60;82.76
14242;BME280;7205;50.864;12.766;2022-10-22T12:44:13;97588.72;;;17.68;82.68
14242;BME280;7205;50.864;12.766;2022-10-22T12:46:41;97590.06;;;17.77;81.54
14242;BME280;7205;50.864;12.766;2022-10-22T12:49:14;97579.75;;;17.81;80.19
14242;BME280;7205;50.864;12.766;2022-10-22T12:51:43;97576.84;;;17.82;79.30
14242;BME280;7205;50.864;12.766;2022-10-22T12:54:18;97575.00;;;17.83;77.69
14242;BME280;7205;50.864;12.766;2022-10-22T12:56:47;97570.50;;;17.83;77.40
14242;BME280;7205;50.864;12.766;2022-10-22T12:59:20;97572.50;;;17.88;77.45
14242;BME280;7205;50.864;12.766;2022-10-22T13:01:49;97569.59;;;17.89;77.40
14242;BME280;7205;50.864;12.766;2022-10-22T13:04:30;97576.13;;;17.93;76.90
14242;BME280;7205;50.864;12.766;2022-10-22T13:07:16;97576.06;;;18.00;76.96
14242;BME280;7205;50.864;12.766;2022-10-22T13:09:44;97580.50;;;18.06;76.53
14242;BME280;7205;50.864;12.766;2022-10-22T13:12:12;97582.94;;;18.07;75.91
14242;BME280;7205;50.864;12.766;2022-10-22T13:14:45;97581.09;;;18.08;75.69
14242;BME280;7205;50.864;12.766;2022-10-22T13:17:14;97579.25;;;18.08;74.90
14242;BME280;7205;50.864;12.766;2022-10-22T13:19:45;97580.88;;;18.09;74.10
14242;BME280;7205;50.864;12.766;2022-10-22T13:22:30;97582.72;;;18.09;73.99
14242;BME280;7205;50.864;12.766;2022-10-22T13:25:02;97585.97;;;18.11;74.15
14242;BME280;7205;50.864;12.766;2022-10-22T13:27:30;97585.97;;;18.11;74.46
14242;BME280;7205;50.864;12.766;2022-10-22T13:30:09;97584.13;;;18.11;75.08
14242;BME280;7205;50.864;12.766;2022-10-22T13:32:52;97589.19;;;18.19;74.51